Time;durP1;ratioP1;P1;durP2;ratioP2;P2;SDS_P1;SDS_P2;PMS_P1;PMS_P2;Temp;Humidity;BMP_temperature;BMP_pressure;BME280_temperature;BME280_humidity;BME280_pressure;Samples;Min_cycle;Max_cycle;Signal;HPM_P1;HPM_P2
2022/07/09 00:02:51;;;;;;;9.17;3.70;;;18.90;99.90;;;;;;6756414;88;22811;-80
2022/07/09 00:12:52;;;;;;;5.65;2.60;;;19.20;99.90;;;;;;6758987;88;21038;-81
2022/07/09 00:22:52;;;;;;;4.62;2.00;;;19.00;99.90;;;;;;6758359;88;20177;-81
2022/07/09 00:32:53;;;;;;;7.05;2.90;;;18.90;99.90;;;;;;6754116;88;20196;-81
2022/07/09 00:42:54;;;;;;;7.82;2.53;;;18.90;99.90;;;;;;6758843;88;20176;-81
2022/07/09 00:52:54;;;;;;;5.85;2.40;;;18.70;99.90;;;;;;6740570;88;20244;-82
2022/07/09 01:02:55;;;;;;;5.47;2.80;;;18.30;99.90;;;;;;6740227;88;20200;-80
2022/07/09 01:12:56;;;;;;;6.47;2.22;;;18.40;99.90;;;;;;6740141;88;20188;-80
2022/07/09 01:22:58;;;;;;;6.17;2.30;;;18.40;99.90;;;;;;6740487;88;20684;-81
2022/07/09 01:33:00;;;;;;;5.50;2.20;;;18.00;99.90;;;;;;6739668;88;20514;-81
2022/07/09 01:43:00;;;;;;;6.82;2.50;;;17.60;99.90;;;;;;6739227;88;20235;-80
2022/07/09 01:53:01;;;;;;;5.50;2.58;;;17.50;99.90;;;;;;6740139;88;20165;-80
2022/07/09 02:03:01;;;;;;;5.37;2.30;;;17.80;99.90;;;;;;6734045;88;20787;-81
2022/07/09 02:13:02;;;;;;;3.97;2.20;;;17.60;99.90;;;;;;6740320;88;20301;-80
2022/07/09 02:23:03;;;;;;;4.75;2.20;;;17.80;99.90;;;;;;6740418;88;20197;-80
2022/07/09 02:33:04;;;;;;;5.30;2.30;;;17.50;99.90;;;;;;6739881;88;20191;-81
2022/07/09 02:43:05;;;;;;;4.50;2.12;;;17.20;99.90;;;;;;6740519;88;20213;-81
2022/07/09 02:53:05;;;;;;;3.65;2.12;;;17.30;99.90;;;;;;6739573;88;20165;-81
2022/07/09 03:03:07;;;;;;;6.37;2.20;;;17.10;99.90;;;;;;6735653;88;20209;-81
2022/07/09 03:13:08;;;;;;;4.03;2.20;;;16.90;99.90;;;;;;6739681;88;20611;-81
2022/07/09 03:23:08;;;;;;;111.60;14.52;;;17.00;99.90;;;;;;6739144;88;20193;-81
2022/07/09 03:33:09;;;;;;;4.78;2.40;;;16.80;99.90;;;;;;6742068;88;20778;-82
2022/07/09 03:43:09;;;;;;;5.47;2.28;;;16.70;99.90;;;;;;6742979;88;20341;-81
2022/07/09 03:53:10;;;;;;;4.40;2.10;;;16.60;99.90;;;;;;6738971;88;20228;-81
2022/07/09 04:03:10;;;;;;;49.23;7.53;;;16.60;99.90;;;;;;6736477;88;20184;-81
2022/07/09 04:13:11;;;;;;;562.55;45.12;;;16.70;99.90;;;;;;6738684;88;20741;-80
2022/07/09 04:23:11;;;;;;;558.87;36.90;;;16.80;99.90;;;;;;6738429;88;20307;-80
2022/07/09 04:33:12;;;;;;;535.75;33.03;;;16.90;99.90;;;;;;6737443;88;20518;-81
2022/07/09 04:43:13;;;;;;;96.15;8.23;;;16.90;99.90;;;;;;6738130;88;20193;-81
2022/07/09 04:53:13;;;;;;;5.47;2.53;;;17.10;99.90;;;;;;6738262;88;20219;-81
2022/07/09 05:03:14;;;;;;;3.70;2.30;;;17.20;99.90;;;;;;6740685;88;20532;-81
2022/07/09 05:13:14;;;;;;;4.37;2.22;;;17.40;99.90;;;;;;6740970;88;21067;-80
2022/07/09 05:23:15;;;;;;;4.25;2.67;;;17.50;99.90;;;;;;6740382;88;20196;-81
2022/07/09 05:33:15;;;;;;;6.85;3.10;;;17.60;99.90;;;;;;6736427;88;20182;-80
2022/07/09 05:43:16;;;;;;;5.15;3.10;;;17.80;99.90;;;;;;6741073;88;20193;-81
2022/07/09 05:53:16;;;;;;;2.60;1.23;;;18.20;99.90;;;;;;6741090;88;20724;-81
2022/07/09 06:03:58;;;;;;;169.60;11.52;;;18.40;99.90;;;;;;6739217;77;20626;-79
2022/07/09 06:13:58;;;;;;;7.57;3.90;;;18.50;99.90;;;;;;6723754;88;20601;-79
2022/07/09 06:23:59;;;;;;;11.82;4.90;;;18.90;99.90;;;;;;6725160;88;20190;-80
2022/07/09 06:33:59;;;;;;;11.18;5.78;;;19.60;99.90;;;;;;6710784;88;20209;-79
2022/07/09 06:44:00;;;;;;;10.07;5.80;;;19.70;99.90;;;;;;6706808;88;20226;-79
2022/07/09 06:54:00;;;;;;;14.90;6.25;;;20.00;99.90;;;;;;6721477;88;20670;-80
2022/07/09 07:04:01;;;;;;;13.75;5.55;;;20.50;99.90;;;;;;6715083;88;21048;-79
2022/07/09 07:14:01;;;;;;;8.65;6.18;;;21.30;99.90;;;;;;6724572;88;20230;-78
2022/07/09 07:24:03;;;;;;;11.43;5.00;;;21.70;99.90;;;;;;6725092;88;20219;-78
2022/07/09 07:34:03;;;;;;;10.48;5.15;;;22.20;99.90;;;;;;6707712;88;20289;-78
2022/07/09 07:44:04;;;;;;;8.18;4.80;;;21.70;99.90;;;;;;6720562;88;20198;-78
2022/07/09 07:54:05;;;;;;;8.63;4.12;;;21.90;99.90;;;;;;6710102;88;20244;-77
2022/07/09 08:04:05;;;;;;;546.65;35.97;;;22.30;99.90;;;;;;6713895;88;20997;-78
2022/07/09 08:14:06;;;;;;;5.22;2.60;;;23.40;99.90;;;;;;6718108;88;20677;-78
2022/07/09 08:24:07;;;;;;;884.03;60.25;;;23.40;99.90;;;;;;6707593;88;20272;-81
2022/07/09 08:34:08;;;;;;;926.13;61.72;;;22.80;99.90;;;;;;6727027;88;20612;-80
2022/07/09 08:44:12;;;;;;;5.78;2.67;;;23.60;99.90;;;;;;6714390;88;20701;-81
2022/07/09 08:54:15;;;;;;;4.37;2.60;;;23.10;99.90;;;;;;6734095;88;20295;-80
2022/07/09 09:04:16;;;;;;;4.40;2.20;;;24.20;99.90;;;;;;6749880;88;20213;-80
2022/07/09 09:14:23;;;;;;;2.85;1.62;;;24.40;99.90;;;;;;6749577;88;20279;-80
2022/07/09 09:24:25;;;;;;;2.70;1.55;;;25.20;99.90;;;;;;6749016;88;20196;-80
2022/07/09 09:34:26;;;;;;;3.43;1.70;;;26.80;97.80;;;;;;6744983;88;20800;-80
2022/07/09 09:44:30;;;;;;;3.20;1.70;;;26.80;96.10;;;;;;6748882;88;20217;-80
2022/07/09 09:54:32;;;;;;;5.05;1.67;;;26.90;94.40;;;;;;6745541;88;20226;-82
2022/07/09 10:04:35;;;;;;;3.78;1.45;;;27.30;92.80;;;;;;6751103;88;20199;-81
2022/07/09 10:14:38;;;;;;;2.28;1.30;;;26.40;93.70;;;;;;6749810;88;20205;-81
2022/07/09 10:24:38;;;;;;;2.17;1.15;;;27.50;92.40;;;;;;6720467;88;20189;-82
2022/07/09 10:34:57;;;;;;;1.90;1.05;;;28.00;92.30;;;;;;6715887;88;20180;-82
2022/07/09 10:44:58;;;;;;;3.53;1.10;;;28.30;91.20;;;;;;6716343;88;20189;-81
2022/07/09 10:54:59;;;;;;;2.17;0.90;;;28.50;90.00;;;;;;6717645;88;20299;-81
2022/07/09 11:04:59;;;;;;;2.75;1.02;;;27.90;89.20;;;;;;6724260;88;20194;-81
2022/07/09 11:15:00;;;;;;;2.50;1.00;;;26.60;91.10;;;;;;6731052;88;20378;-81
2022/07/09 11:25:00;;;;;;;3.28;1.30;;;26.70;90.70;;;;;;6730791;88;20204;-81
2022/07/09 11:35:01;;;;;;;3.20;1.30;;;28.30;89.60;;;;;;6727137;88;20293;-82
2022/07/09 11:45:02;;;;;;;2.72;1.20;;;28.40;86.10;;;;;;6731590;88;20618;-81
2022/07/09 11:55:09;;;;;;;1.95;1.00;;;29.70;85.20;;;;;;6731399;88;20244;-82
2022/07/09 12:16:12;;;;;;;2.85;1.10;;;27.30;87.20;;;;;;6727531;88;20712;-80
2022/07/09 12:26:13;;;;;;;3.00;1.30;;;28.10;85.50;;;;;;6728673;88;20184;-79
2022/07/09 12:36:16;;;;;;;5.15;1.10;;;26.40;87.40;;;;;;6728463;88;20210;-80
2022/07/09 12:46:16;;;;;;;1.98;1.20;;;27.40;88.90;;;;;;6728930;88;20210;-81
2022/07/09 12:56:17;;;;;;;3.10;1.47;;;27.10;87.40;;;;;;6728703;88;20217;-80
2022/07/09 13:06:33;;;;;;;2.45;1.40;;;27.00;88.00;;;;;;6730146;88;20215;-81
2022/07/09 13:16:37;;;;;;;2.60;1.42;;;26.50;88.50;;;;;;6734435;88;20270;-82
2022/07/09 13:26:38;;;;;;;3.80;1.77;;;27.20;88.30;;;;;;6728050;88;20290;-80
2022/07/09 13:36:39;;;;;;;3.45;1.80;;;27.40;86.80;;;;;;6724616;88;20334;-81
2022/07/09 13:46:39;;;;;;;7.90;1.85;;;25.70;90.40;;;;;;6728777;88;20283;-80
2022/07/09 13:56:40;;;;;;;3.55;2.60;;;24.90;92.10;;;;;;6730378;88;20660;-80
2022/07/09 14:06:40;;;;;;;4.43;3.20;;;22.40;99.90;;;;;;6733196;88;20240;-80
2022/07/09 14:16:41;;;;;;;8.30;5.15;;;21.40;99.90;;;;;;6732800;88;20181;-80
2022/07/09 14:26:43;;;;;;;10.23;6.80;;;20.20;99.90;;;;;;6730877;88;20735;-82
2022/07/09 14:36:44;;;;;;;10.38;7.12;;;19.60;99.90;;;;;;6733768;88;20486;-81
2022/07/09 14:46:45;;;;;;;11.00;7.62;;;19.60;99.90;;;;;;6731232;88;20201;-81
2022/07/09 14:56:45;;;;;;;10.27;7.80;;;19.50;99.90;;;;;;6736456;88;20188;-81
2022/07/09 15:06:46;;;;;;;13.90;9.77;;;19.90;99.90;;;;;;6740203;88;20193;-82
2022/07/09 15:16:46;;;;;;;16.33;13.27;;;20.60;99.90;;;;;;6740454;88;20191;-82
2022/07/09 15:26:47;;;;;;;14.35;11.82;;;21.30;99.90;;;;;;6737210;88;20192;-81
2022/07/09 15:36:48;;;;;;;16.27;12.55;;;22.20;99.90;;;;;;6734312;88;20232;-82
2022/07/09 15:46:48;;;;;;;14.50;12.30;;;23.50;99.90;;;;;;6731120;88;20269;-81
2022/07/09 15:56:50;;;;;;;12.63;8.93;;;23.80;99.90;;;;;;6732244;88;20260;-81
2022/07/09 16:06:50;;;;;;;9.55;6.95;;;24.90;99.90;;;;;;6736861;88;20228;-81
2022/07/09 16:16:51;;;;;;;8.00;5.78;;;24.20;99.90;;;;;;6736662;88;20828;-82
2022/07/09 16:26:51;;;;;;;7.60;5.03;;;23.90;99.90;;;;;;6735785;88;20181;-81
2022/07/09 16:36:52;;;;;;;5.43;3.08;;;24.20;99.90;;;;;;6731123;88;20324;-81
2022/07/09 16:46:52;;;;;;;7.10;1.83;;;24.00;99.90;;;;;;6736303;88;20977;-81
2022/07/09 16:56:53;;;;;;;2.60;1.45;;;23.70;99.90;;;;;;6739034;88;20311;-81
2022/07/09 17:06:54;;;;;;;2.70;1.30;;;23.80;99.90;;;;;;6743155;88;20316;-81
2022/07/09 17:16:54;;;;;;;2.20;1.45;;;23.40;99.90;;;;;;6742145;88;20257;-81
2022/07/09 17:26:55;;;;;;;3.55;1.23;;;24.40;99.90;;;;;;6743533;88;20785;-82
2022/07/09 17:36:55;;;;;;;3.30;1.25;;;23.80;99.90;;;;;;6743811;88;20177;-82
2022/07/09 17:46:56;;;;;;;2.87;1.20;;;24.10;98.80;;;;;;6746327;88;20279;-82
2022/07/09 17:56:57;;;;;;;2.70;1.30;;;23.70;96.80;;;;;;6747450;88;20158;-80
2022/07/09 18:17:59;;;;;;;2.12;1.10;;;23.20;98.70;;;;;;6740777;88;20338;-79
2022/07/09 18:28:01;;;;;;;2.72;1.20;;;22.50;99.00;;;;;;6738865;88;20216;-80
2022/07/09 18:38:02;;;;;;;3.92;1.30;;;22.60;98.50;;;;;;6736422;88;20177;-79
2022/07/09 18:48:04;;;;;;;3.22;1.12;;;22.20;99.70;;;;;;6737593;88;20210;-79
2022/07/09 18:58:04;;;;;;;2.78;1.05;;;22.00;99.30;;;;;;6738358;88;20188;-80
2022/07/09 19:08:05;;;;;;;2.42;0.90;;;21.60;98.90;;;;;;6738482;88;20210;-81
2022/07/09 19:18:06;;;;;;;3.42;0.90;;;21.30;98.60;;;;;;6746925;88;20178;-80
2022/07/09 19:28:06;;;;;;;4.12;1.00;;;21.20;96.90;;;;;;6739838;88;20205;-81
2022/07/09 19:38:07;;;;;;;2.40;1.08;;;21.00;98.60;;;;;;6735450;88;20219;-81
2022/07/09 19:48:07;;;;;;;4.75;1.35;;;20.90;99.10;;;;;;6739531;88;20214;-80
2022/07/09 19:58:08;;;;;;;3.70;1.35;;;20.70;99.90;;;;;;6739465;88;20744;-81
2022/07/09 20:08:08;;;;;;;5.03;1.50;;;20.60;99.90;;;;;;6735736;88;20726;-80
2022/07/09 20:18:10;;;;;;;4.30;1.30;;;20.50;99.90;;;;;;6739395;88;20209;-81
2022/07/09 20:28:10;;;;;;;4.00;1.20;;;20.30;99.90;;;;;;6738578;88;20235;-81
2022/07/09 20:38:11;;;;;;;5.15;1.40;;;20.00;99.90;;;;;;6744967;88;20751;-82
2022/07/09 20:48:11;;;;;;;4.53;1.23;;;19.60;99.90;;;;;;6741590;88;20268;-81
2022/07/09 20:58:12;;;;;;;4.43;1.40;;;19.30;99.90;;;;;;6745408;88;20215;-81
2022/07/09 21:08:12;;;;;;;4.85;1.37;;;19.00;99.90;;;;;;6741008;88;20199;-81
2022/07/09 21:28:34;;;;;;;4.03;1.20;;;18.60;99.90;;;;;;6728817;88;20162;-82
2022/07/09 21:38:35;;;;;;;3.35;1.20;;;18.30;99.90;;;;;;6728787;88;20277;-81
2022/07/09 21:48:35;;;;;;;4.68;1.20;;;18.00;99.90;;;;;;6728647;88;20231;-82
2022/07/09 21:58:36;;;;;;;5.00;1.40;;;17.80;99.90;;;;;;6728761;88;20266;-82
2022/07/09 22:08:36;;;;;;;4.55;1.40;;;17.70;99.90;;;;;;6728033;88;20919;-81
2022/07/09 22:18:37;;;;;;;4.25;1.40;;;17.40;99.90;;;;;;6723677;88;20660;-80
2022/07/09 22:28:37;;;;;;;4.47;1.50;;;17.30;99.90;;;;;;6723881;88;20989;-81
2022/07/09 22:38:38;;;;;;;4.30;1.42;;;17.10;99.90;;;;;;6727146;88;20193;-82
2022/07/09 22:48:38;;;;;;;4.32;1.20;;;16.90;99.90;;;;;;6726720;88;20190;-82
2022/07/09 22:58:39;;;;;;;6.15;1.40;;;16.80;99.90;;;;;;6727253;88;20200;-81
2022/07/09 23:08:54;;;;;;;4.60;1.30;;;16.90;99.90;;;;;;6727317;88;20177;-81
2022/07/09 23:18:57;;;;;;;2.80;1.20;;;16.90;99.90;;;;;;6728447;88;20301;-80
2022/07/09 23:28:59;;;;;;;3.25;1.00;;;16.80;99.90;;;;;;6727088;88;20208;-82
2022/07/09 23:38:59;;;;;;;4.00;1.08;;;16.40;99.90;;;;;;6722623;88;20896;-80
2022/07/09 23:49:00;;;;;;;4.85;1.02;;;16.30;99.90;;;;;;6726307;88;20222;-80
2022/07/09 23:59:00;;;;;;;3.70;0.90;;;16.10;99.90;;;;;;6727436;88;20190;-80
